createdAt,value
2024-03-04T00:00:00.976Z,28.50
2024-03-04T00:05:29.162Z,27.60
2024-03-04T00:10:36.504Z,29.30
2024-03-04T00:15:43.829Z,29.50
2024-03-04T00:20:50.960Z,28.20
2024-03-04T00:25:58.210Z,27.90
2024-03-04T00:31:05.870Z,28.50
2024-03-04T00:36:13.355Z,27.10
2024-03-04T00:41:27.227Z,28.40
2024-03-04T00:46:34.694Z,26.90
2024-03-04T00:51:41.997Z,26.50
2024-03-04T00:56:49.238Z,26.80
2024-03-04T01:01:57.514Z,27.10
2024-03-04T01:07:04.860Z,26.30
2024-03-04T01:12:12.169Z,26.70
2024-03-04T01:17:19.427Z,24.50
2024-03-04T01:22:28.092Z,25.00
2024-03-04T01:27:37.093Z,22.60
2024-03-04T01:32:44.369Z,23.00
2024-03-04T01:37:52.110Z,23.90
2024-03-04T01:43:00.146Z,23.90
2024-03-04T01:53:17.042Z,21.40
2024-03-04T01:58:25.222Z,22.00
2024-03-04T02:03:36.992Z,22.60
2024-03-04T02:08:44.247Z,23.30
2024-03-04T02:13:51.958Z,21.80
2024-03-04T02:18:59.187Z,23.00
2024-03-04T02:24:06.954Z,22.70
2024-03-04T02:29:14.767Z,23.20
2024-03-04T02:34:22.058Z,22.60
2024-03-04T02:39:29.588Z,22.80
2024-03-04T02:44:37.149Z,22.30
2024-03-04T02:49:44.922Z,23.70
2024-03-04T02:54:52.049Z,24.20
2024-03-04T02:59:59.301Z,22.50
2024-03-04T03:05:08.056Z,24.00
2024-03-04T03:10:17.104Z,22.50
2024-03-04T03:15:24.349Z,21.80
2024-03-04T03:20:31.771Z,22.00
2024-03-04T03:25:39.124Z,22.70
2024-03-04T03:30:46.349Z,22.60
2024-03-04T03:35:53.513Z,22.70
2024-03-04T03:41:01.466Z,23.40
2024-03-04T03:51:14.369Z,21.70
2024-03-04T03:56:21.724Z,23.00
2024-03-04T04:01:28.939Z,22.50
2024-03-04T04:06:36.259Z,23.20
2024-03-04T04:11:46.001Z,21.70
2024-03-04T04:16:53.234Z,21.10
2024-03-04T04:22:01.751Z,23.70
2024-03-04T04:27:09.716Z,22.80
2024-03-04T04:37:22.565Z,22.50
2024-03-04T04:42:30.202Z,22.90
2024-03-04T04:47:37.416Z,22.50
2024-03-04T04:52:44.613Z,24.70
2024-03-04T04:57:51.961Z,23.70
2024-03-04T05:02:59.072Z,24.80
2024-03-04T05:08:06.886Z,24.00
2024-03-04T05:13:14.047Z,22.10
2024-03-04T05:18:21.264Z,23.00
2024-03-04T05:23:28.423Z,23.10
2024-03-04T05:28:35.667Z,21.10
2024-03-04T05:33:43.714Z,22.10
2024-03-04T05:38:50.936Z,22.20
2024-03-04T05:43:58.212Z,21.00
2024-03-04T05:49:05.838Z,18.50
2024-03-04T05:54:13.374Z,19.20
2024-03-04T05:59:22.360Z,20.50
2024-03-04T06:04:29.962Z,19.00
2024-03-04T06:09:37.305Z,18.20
2024-03-04T06:14:44.375Z,20.40
2024-03-04T06:19:51.593Z,20.10
2024-03-04T06:24:58.778Z,18.10
2024-03-04T06:30:14.054Z,19.50
2024-03-04T06:35:21.796Z,18.60
2024-03-04T06:40:29.171Z,19.30
2024-03-04T06:45:37.683Z,19.80
2024-03-04T06:50:45.471Z,18.50
2024-03-04T06:55:53.256Z,18.40
2024-03-04T07:01:00.645Z,18.10
2024-03-04T07:06:14.639Z,19.80
2024-03-04T07:11:22.041Z,18.10
2024-03-04T07:16:29.393Z,17.80
2024-03-04T07:21:36.654Z,18.80
2024-03-04T07:26:44.155Z,19.40
2024-03-04T07:31:51.744Z,17.50
2024-03-04T07:36:59.658Z,20.20
2024-03-04T07:42:07.545Z,19.00
2024-03-04T07:47:14.828Z,19.70
2024-03-04T07:52:22.162Z,19.00
2024-03-04T07:57:29.823Z,19.70
2024-03-04T08:02:37.200Z,19.50
2024-03-04T08:07:44.637Z,19.40
2024-03-04T08:12:52.055Z,18.70
2024-03-04T08:18:00.778Z,20.80
2024-03-04T08:23:08.510Z,19.90
2024-03-04T08:28:20.353Z,20.10
2024-03-04T08:33:36.520Z,20.60
2024-03-04T08:38:43.926Z,19.90
2024-03-04T08:43:51.674Z,20.10
2024-03-04T08:48:59.013Z,20.80
2024-03-04T08:54:06.526Z,20.30
2024-03-04T08:59:13.699Z,20.80
2024-03-04T09:04:21.237Z,20.40
2024-03-04T09:09:28.690Z,21.60
2024-03-04T09:14:36.064Z,20.00
2024-03-04T09:19:46.162Z,22.20
2024-03-04T09:24:53.956Z,20.90
2024-03-04T09:30:01.384Z,21.10
2024-03-04T09:40:17.566Z,20.90
2024-03-04T09:45:26.896Z,20.50
2024-03-04T09:50:35.647Z,21.50
2024-03-04T09:55:43.412Z,20.10
2024-03-04T10:00:51.314Z,19.90
2024-03-04T10:05:59.460Z,20.00
2024-03-04T10:11:07.119Z,21.90
2024-03-04T10:16:16.995Z,21.40
2024-03-04T10:21:24.401Z,20.30
2024-03-04T10:26:43.646Z,21.40
2024-03-04T10:31:55.141Z,21.30
2024-03-04T10:37:04.427Z,21.60
2024-03-04T10:42:16.573Z,21.40
2024-03-04T10:47:24.414Z,23.60
2024-03-04T10:52:31.768Z,19.90
2024-03-04T10:57:44.270Z,19.20
2024-03-04T11:02:58.669Z,21.60
2024-03-04T11:08:09.858Z,21.40
2024-03-04T11:13:27.912Z,21.20
2024-03-04T11:23:51.838Z,20.70
2024-03-04T11:28:59.693Z,21.70
2024-03-04T11:34:11.087Z,20.90
2024-03-04T11:39:22.346Z,24.40
2024-03-04T11:44:30.923Z,23.90
2024-03-04T11:49:47.279Z,23.60
2024-03-04T11:54:58.581Z,24.90
2024-03-04T12:00:10.835Z,24.00
2024-03-04T12:05:18.524Z,23.70
2024-03-04T12:10:27.153Z,25.60
2024-03-04T12:15:34.475Z,27.00
2024-03-04T12:20:44.326Z,27.20
2024-03-04T12:25:51.745Z,24.30
2024-03-04T12:30:59.796Z,25.80
2024-03-04T12:41:22.961Z,27.80
2024-03-04T12:46:30.274Z,27.80
2024-03-04T12:51:38.781Z,26.60
2024-03-04T12:56:46.377Z,29.80
2024-03-04T13:01:56.503Z,30.60
2024-03-04T13:07:05.754Z,26.90
2024-03-04T13:12:14.233Z,24.30
2024-03-04T13:18:03.913Z,28.30
2024-03-04T13:23:11.736Z,28.00
2024-03-04T13:28:19.422Z,28.00
2024-03-04T13:34:39.210Z,26.00
2024-03-04T13:39:55.498Z,27.10
2024-03-04T13:45:03.677Z,25.80
2024-03-04T13:51:27.885Z,26.20
2024-03-04T13:56:41.126Z,26.50
2024-03-04T14:01:48.662Z,26.10
2024-03-04T14:06:56.278Z,26.00
2024-03-04T14:12:03.858Z,26.80
2024-03-04T14:17:11.681Z,27.80
2024-03-04T14:22:19.100Z,27.00
2024-03-04T14:27:27.367Z,27.30
2024-03-04T14:37:40.939Z,27.40
2024-03-04T14:42:48.317Z,27.40
2024-03-04T14:53:05.639Z,26.90
2024-03-04T14:58:31.291Z,27.90
2024-03-04T15:04:06.862Z,28.00
2024-03-04T15:10:05.625Z,27.90
2024-03-04T15:15:17.076Z,29.30
2024-03-04T15:20:29.569Z,30.20
2024-03-04T15:25:40.397Z,27.00
2024-03-04T15:30:49.031Z,27.40
2024-03-04T15:36:09.917Z,27.60
2024-03-04T15:41:25.100Z,29.10
2024-03-04T15:46:32.484Z,27.40
2024-03-04T15:51:45.349Z,28.00
2024-03-04T15:56:52.885Z,29.00
2024-03-04T16:02:00.781Z,28.70
2024-03-04T16:12:16.028Z,28.50
2024-03-04T16:17:23.458Z,29.90
2024-03-04T16:22:31.084Z,28.80
2024-03-04T16:27:38.460Z,31.10
2024-03-04T16:32:45.889Z,30.40
2024-03-04T16:37:53.443Z,30.70
2024-03-04T16:43:01.380Z,29.30
2024-03-04T16:48:09.468Z,28.50
2024-03-04T16:58:23.236Z,29.50
2024-03-04T17:03:30.630Z,30.50
2024-03-04T17:08:38.334Z,30.20
2024-03-04T17:13:45.755Z,29.70
2024-03-04T17:18:53.064Z,26.70
2024-03-04T17:24:00.830Z,28.70
2024-03-04T17:29:10.825Z,28.70
2024-03-04T17:34:18.477Z,28.00
2024-03-04T17:39:25.885Z,25.90
2024-03-04T17:45:20.503Z,29.00
2024-03-04T17:50:30.818Z,28.10
2024-03-04T17:55:47.962Z,28.30
2024-03-04T18:00:57.767Z,27.50
2024-03-04T18:06:06.485Z,30.40
2024-03-04T18:11:14.614Z,27.20
2024-03-04T18:16:22.324Z,29.60
2024-03-04T18:21:30.409Z,30.20
2024-03-04T18:31:44.459Z,33.20
2024-03-04T18:42:00.392Z,34.30
2024-03-04T18:47:07.811Z,35.80
2024-03-04T18:52:16.003Z,34.60
2024-03-04T18:57:24.690Z,33.90
2024-03-04T19:02:32.228Z,35.20
2024-03-04T19:07:39.717Z,36.40
2024-03-04T19:12:47.455Z,35.80
2024-03-04T19:17:55.183Z,35.30
2024-03-04T19:23:02.742Z,36.40
2024-03-04T19:28:13.379Z,34.40
2024-03-04T19:33:22.888Z,36.10
2024-03-04T19:38:30.879Z,34.80
2024-03-04T19:43:38.317Z,36.50
2024-03-04T19:48:47.223Z,36.40
2024-03-04T19:53:55.261Z,37.10
2024-03-04T19:59:03.115Z,37.50
2024-03-04T20:04:10.749Z,35.90
2024-03-04T20:09:18.147Z,36.80
2024-03-04T20:14:25.832Z,38.10
2024-03-04T20:19:33.309Z,35.60
2024-03-04T20:24:40.751Z,36.00
2024-03-04T20:29:48.847Z,33.00
2024-03-04T20:40:17.713Z,34.70
2024-03-04T20:46:14.816Z,34.10
2024-03-04T20:51:35.890Z,33.00
2024-03-04T20:56:44.269Z,40.90
2024-03-04T21:01:51.860Z,44.60
2024-03-04T21:06:59.463Z,40.50
2024-03-04T21:12:07.529Z,40.00
2024-03-04T21:22:24.043Z,33.50
2024-03-04T21:27:32.063Z,33.70
2024-03-04T21:32:40.097Z,34.10
2024-03-04T21:42:55.231Z,35.40
2024-03-04T21:48:02.463Z,35.00
2024-03-04T21:53:09.868Z,37.10
2024-03-04T21:58:19.347Z,36.50
2024-03-04T22:03:26.885Z,35.00
2024-03-04T22:08:36.426Z,33.00
2024-03-04T22:13:51.891Z,32.50
2024-03-04T22:19:05.569Z,32.30
2024-03-04T22:24:13.202Z,30.80
2024-03-04T22:29:20.904Z,30.60
2024-03-04T22:34:31.086Z,28.00
2024-03-04T22:39:43.094Z,28.60
2024-03-04T22:44:58.764Z,26.30
2024-03-04T22:50:10.076Z,27.60
2024-03-04T22:55:17.862Z,27.00
2024-03-04T23:00:29.770Z,25.80
2024-03-04T23:05:37.222Z,27.20
2024-03-04T23:10:44.740Z,26.30
2024-03-04T23:15:52.924Z,27.10
2024-03-04T23:21:00.728Z,24.10
2024-03-04T23:26:08.452Z,24.20
2024-03-04T23:31:15.977Z,24.50
2024-03-04T23:36:24.522Z,23.70
2024-03-04T23:41:32.403Z,23.50
2024-03-04T23:46:39.749Z,24.20
2024-03-04T23:51:47.077Z,25.40
2024-03-04T23:56:54.294Z,22.80
